Alberta, Virginia
Current Conditions -  °F | °C
As of 5:55 PM on Friday 31 Oct 2014 (Local Time) from KLVL Reporting Station
Overcast Overcast  
Wind Chill: 53°   Ceiling: 6000
Heat Index: 53°   Visibility: 10mi
Dew Point: 45°   Wind: 0mph
Humidity: 73%   Direction: NA
Pressure: 29.82"   Gusts: NA
Location:  36.87°N, 77.89°W
Report Text: KLVL 312155Z AUTO 00000KT 10SM OVC060 12/07 A2982 RMK AO1 T01170070
Loading
Personal Weather Stations






























Interactive Weather Map
Tropical Storm Tracking
New forecast layout! Learn more

10-Day Weather Forecast

Advertisements
Track Severe Weather on mobile